Erp, Netherlands
Current Conditions -  °F | °C
As of 5:25 AM on Thursday 29 Jan 2015 (Local Time) from EHVK Reporting Station
Broken Clouds Broken Clouds  
Wind Chill: 24°   Ceiling: 12000
Heat Index: 36°   Visibility: 6mi
Dew Point: 30°   Wind: 23mph
Humidity: 81%   Direction: 220°SW
Pressure: 29.29"   Gusts: NA
Location:  51.6°N, 5.61°E
Report Text: EHVK 290425Z AUTO 22020KT 9999 FEW024 BKN120 02/M01 Q0992 BLU
Loading
Personal Weather Stations






























Interactive Weather Map New forecast layout! Learn more

10-Day Weather Forecast

Advertisements
Track Severe Weather on mobile